createdAt,value
2019-02-06T00:00:46.044Z,77.00
2019-02-06T00:03:19.398Z,73.83
2019-02-06T00:05:47.772Z,75.53
2019-02-06T00:08:16.176Z,71.07
2019-02-06T00:10:44.550Z,76.67
2019-02-06T00:13:12.797Z,82.10
2019-02-06T00:15:41.281Z,71.60
2019-02-06T00:18:10.019Z,66.93
2019-02-06T00:20:38.320Z,72.73
2019-02-06T00:23:06.707Z,75.90
2019-02-06T00:25:34.832Z,67.60
2019-02-06T00:28:03.851Z,75.33
2019-02-06T00:30:32.262Z,75.50
2019-02-06T00:33:01.789Z,70.47
2019-02-06T00:35:30.005Z,73.33
2019-02-06T00:37:58.501Z,66.30
2019-02-06T00:40:26.982Z,73.27
2019-02-06T00:42:55.095Z,70.87
2019-02-06T00:45:24.396Z,69.73
2019-02-06T00:47:54.267Z,68.13
2019-02-06T00:50:22.591Z,67.57
2019-02-06T00:52:50.806Z,68.10
2019-02-06T00:55:19.452Z,66.80
2019-02-06T00:57:49.671Z,67.30
2019-02-06T01:00:21.619Z,66.80
2019-02-06T01:02:51.304Z,68.03
2019-02-06T01:05:20.428Z,68.20
2019-02-06T01:07:49.134Z,63.73
2019-02-06T01:10:17.836Z,69.23
2019-02-06T01:12:46.032Z,69.73
2019-02-06T01:15:14.839Z,64.07
2019-02-06T01:17:43.084Z,69.07
2019-02-06T01:20:14.070Z,64.57
2019-02-06T01:22:42.241Z,66.47
2019-02-06T01:25:12.682Z,65.03
2019-02-06T01:27:42.077Z,64.10
2019-02-06T01:30:16.024Z,61.87
2019-02-06T01:32:44.134Z,60.80
2019-02-06T01:35:14.557Z,68.13
2019-02-06T01:37:42.825Z,68.00
2019-02-06T01:40:13.799Z,58.33
2019-02-06T01:42:42.095Z,62.50
2019-02-06T01:45:13.470Z,59.70
2019-02-06T01:47:42.802Z,53.70
2019-02-06T01:50:13.220Z,62.00
2019-02-06T01:52:41.423Z,59.10
2019-02-06T01:55:10.261Z,55.43
2019-02-06T01:57:38.581Z,52.13
2019-02-06T02:00:15.930Z,52.43
2019-02-06T02:02:44.235Z,51.77
2019-02-06T02:05:14.544Z,53.73
2019-02-06T02:07:44.060Z,53.43
2019-02-06T02:10:12.941Z,56.80
2019-02-06T02:12:41.193Z,58.23
2019-02-06T02:15:10.931Z,57.33
2019-02-06T02:17:40.371Z,54.93
2019-02-06T02:20:13.495Z,65.77
2019-02-06T02:22:41.935Z,54.27
2019-02-06T02:25:10.336Z,58.07
2019-02-06T02:27:38.545Z,60.00
2019-02-06T02:30:11.051Z,65.97
2019-02-06T02:32:39.262Z,68.40
2019-02-06T02:35:08.148Z,63.20
2019-02-06T02:37:36.920Z,64.30
2019-02-06T02:40:07.164Z,68.90
2019-02-06T02:42:35.413Z,69.17
2019-02-06T02:45:05.120Z,71.60
2019-02-06T02:47:35.631Z,74.60
2019-02-06T02:50:05.627Z,74.03
2019-02-06T02:52:33.859Z,73.93
2019-02-06T02:55:01.977Z,77.93
2019-02-06T02:57:34.796Z,79.63
2019-02-06T03:00:05.643Z,76.53
2019-02-06T03:02:46.565Z,80.33
2019-02-06T03:05:19.556Z,83.77
2019-02-06T03:07:47.827Z,82.87
2019-02-06T03:10:15.992Z,91.17
2019-02-06T03:12:44.172Z,82.80
2019-02-06T03:15:12.590Z,87.07
2019-02-06T03:17:41.366Z,85.70
2019-02-06T03:20:10.731Z,83.63
2019-02-06T03:22:39.974Z,91.53
2019-02-06T03:25:09.291Z,94.03
2019-02-06T03:27:37.849Z,93.67
2019-02-06T03:30:09.927Z,91.93
2019-02-06T03:32:38.386Z,93.13
2019-02-06T03:35:06.929Z,96.83
2019-02-06T03:37:35.069Z,92.07
2019-02-06T03:40:04.387Z,93.73
2019-02-06T03:42:32.479Z,89.47
2019-02-06T03:45:01.731Z,90.27
2019-02-06T03:47:30.124Z,93.47
2019-02-06T03:49:59.427Z,87.63
2019-02-06T03:52:29.615Z,96.63
2019-02-06T03:55:00.336Z,99.80
2019-02-06T03:57:29.250Z,95.17
2019-02-06T03:59:59.494Z,92.90
2019-02-06T04:02:27.834Z,97.33
2019-02-06T04:04:56.725Z,96.90
2019-02-06T04:07:25.199Z,89.50
2019-02-06T04:09:55.496Z,88.40
2019-02-06T04:12:23.596Z,89.30
2019-02-06T04:14:51.782Z,86.00
2019-02-06T04:17:20.000Z,96.27
2019-02-06T04:19:48.566Z,90.03
2019-02-06T04:22:16.869Z,97.73
2019-02-06T04:24:45.035Z,88.77
2019-02-06T04:27:14.185Z,84.33
2019-02-06T04:29:43.785Z,88.73
2019-02-06T04:32:12.200Z,91.80
2019-02-06T04:34:40.353Z,92.33
2019-02-06T04:37:08.693Z,87.83
2019-02-06T04:39:38.297Z,86.83
2019-02-06T04:42:06.402Z,92.87
2019-02-06T04:44:35.648Z,91.30
2019-02-06T04:47:04.091Z,88.63
2019-02-06T04:49:32.313Z,84.27
2019-02-06T04:52:00.823Z,89.03
2019-02-06T04:54:28.997Z,84.03
2019-02-06T04:56:57.084Z,86.20
2019-02-06T04:59:26.195Z,84.93
2019-02-06T05:01:54.315Z,80.17
2019-02-06T05:04:24.466Z,87.53
2019-02-06T05:06:52.614Z,86.70
2019-02-06T05:09:21.630Z,85.07
2019-02-06T05:11:49.901Z,77.37
2019-02-06T05:14:18.011Z,82.23
2019-02-06T05:16:46.140Z,83.90
2019-02-06T05:19:14.290Z,85.00
2019-02-06T05:21:42.393Z,85.83
2019-02-06T05:24:10.614Z,81.53
2019-02-06T05:26:38.717Z,78.83
2019-02-06T05:29:07.666Z,83.73
2019-02-06T05:31:35.962Z,80.40
2019-02-06T05:34:04.253Z,77.97
2019-02-06T05:36:32.474Z,84.70
2019-02-06T05:39:00.511Z,78.77
2019-02-06T05:41:28.632Z,84.20
2019-02-06T05:43:56.715Z,80.93
2019-02-06T05:46:26.872Z,80.50
2019-02-06T05:48:54.977Z,75.60
2019-02-06T05:51:23.073Z,75.03
2019-02-06T05:53:51.299Z,70.87
2019-02-06T05:56:19.410Z,75.47
2019-02-06T05:58:47.907Z,71.87
2019-02-06T06:01:18.099Z,67.20
2019-02-06T06:03:46.474Z,74.87
2019-02-06T06:06:14.694Z,71.40
2019-02-06T06:08:42.896Z,69.50
2019-02-06T06:11:12.749Z,74.10
2019-02-06T06:13:41.396Z,74.43
2019-02-06T06:16:09.617Z,67.13
2019-02-06T06:18:38.097Z,70.50
2019-02-06T06:21:07.337Z,70.83
2019-02-06T06:23:35.392Z,69.03
2019-02-06T06:26:03.750Z,70.60
2019-02-06T06:28:31.866Z,68.30
2019-02-06T06:31:03.137Z,61.10
2019-02-06T06:33:32.002Z,68.50
2019-02-06T06:36:01.924Z,63.10
2019-02-06T06:38:30.270Z,63.83
2019-02-06T06:40:58.976Z,64.13
2019-02-06T06:43:27.921Z,59.30
2019-02-06T06:45:56.218Z,61.00
2019-02-06T06:48:24.424Z,66.40
2019-02-06T06:50:53.390Z,61.23
2019-02-06T06:53:21.774Z,66.37
2019-02-06T06:55:49.886Z,61.60
2019-02-06T06:58:18.165Z,60.37
2019-02-06T07:00:46.400Z,57.07
2019-02-06T07:03:14.416Z,57.47
2019-02-06T07:05:42.885Z,57.93
2019-02-06T07:08:13.413Z,57.43
2019-02-06T07:10:41.019Z,59.30
2019-02-06T07:13:09.224Z,52.30
2019-02-06T07:15:37.367Z,49.33
2019-02-06T07:18:05.519Z,47.47
2019-02-06T07:20:34.521Z,47.13
2019-02-06T07:23:03.273Z,41.50
2019-02-06T07:25:31.785Z,45.50
2019-02-06T07:27:59.796Z,44.60
2019-02-06T07:30:33.836Z,47.60
2019-02-06T07:33:02.241Z,47.70
2019-02-06T07:35:30.657Z,46.00
2019-02-06T07:38:00.889Z,47.73
2019-02-06T07:40:29.101Z,47.67
2019-02-06T07:42:57.228Z,50.27
2019-02-06T07:45:26.080Z,45.37
2019-02-06T07:47:54.190Z,45.27
2019-02-06T07:50:28.589Z,47.97
2019-02-06T07:52:57.114Z,46.77
2019-02-06T07:55:25.646Z,44.93
2019-02-06T07:57:53.802Z,42.10
2019-02-06T08:00:22.237Z,46.20
2019-02-06T08:02:52.915Z,39.17
2019-02-06T08:05:21.299Z,39.27
2019-02-06T08:07:49.950Z,40.03
2019-02-06T08:10:25.178Z,40.13
2019-02-06T08:12:53.415Z,39.00
2019-02-06T08:15:21.686Z,36.03
2019-02-06T08:17:50.064Z,34.93
2019-02-06T08:20:18.780Z,37.60
2019-02-06T08:22:47.069Z,35.70
2019-02-06T08:25:16.290Z,38.30
2019-02-06T08:27:44.500Z,34.20
2019-02-06T08:30:25.558Z,32.37
2019-02-06T08:32:53.936Z,34.87
2019-02-06T08:35:23.981Z,31.37
2019-02-06T08:37:52.502Z,32.47
2019-02-06T08:40:22.613Z,31.07
2019-02-06T08:42:51.815Z,33.37
2019-02-06T08:45:20.194Z,32.17
2019-02-06T08:47:48.252Z,32.47
2019-02-06T08:50:16.914Z,31.60
2019-02-06T08:52:45.266Z,27.87
2019-02-06T08:55:19.439Z,30.27
2019-02-06T08:57:48.528Z,27.47
2019-02-06T09:00:20.995Z,29.33
2019-02-06T09:02:51.318Z,27.47
2019-02-06T09:05:19.473Z,24.63
2019-02-06T09:07:49.082Z,29.67
2019-02-06T09:10:19.712Z,26.57
2019-02-06T09:12:47.996Z,26.83
2019-02-06T09:15:18.634Z,28.37
2019-02-06T09:17:46.841Z,26.77
2019-02-06T09:20:18.402Z,26.57
2019-02-06T09:22:46.751Z,28.23
2019-02-06T09:25:16.948Z,29.30
2019-02-06T09:27:45.179Z,25.50
2019-02-06T09:30:17.090Z,27.80
2019-02-06T09:32:45.162Z,25.70
2019-02-06T09:35:14.527Z,23.40
2019-02-06T09:37:43.065Z,23.50
2019-02-06T09:40:12.929Z,25.10
2019-02-06T09:42:41.029Z,23.63
2019-02-06T09:45:10.810Z,27.00
2019-02-06T09:47:38.882Z,22.97
2019-02-06T09:50:11.894Z,27.27
2019-02-06T09:52:40.505Z,23.40
2019-02-06T09:55:09.436Z,25.77
2019-02-06T09:57:37.617Z,23.03
2019-02-06T10:00:10.878Z,21.60
2019-02-06T10:02:38.901Z,22.17
2019-02-06T10:05:07.876Z,25.80
2019-02-06T10:07:36.315Z,18.33
2019-02-06T10:10:07.988Z,24.87
2019-02-06T10:12:36.003Z,19.33
2019-02-06T10:15:05.624Z,19.10
2019-02-06T10:17:36.142Z,20.47
2019-02-06T10:20:05.898Z,19.33
2019-02-06T10:22:34.384Z,19.10
2019-02-06T10:25:02.862Z,21.50
2019-02-06T10:27:31.190Z,20.13
2019-02-06T10:29:59.337Z,24.63
2019-02-06T10:32:27.436Z,21.50
2019-02-06T10:34:55.624Z,19.63
2019-02-06T10:37:23.947Z,19.60
2019-02-06T10:39:53.023Z,18.43
2019-02-06T10:42:21.388Z,21.10
2019-02-06T10:44:49.617Z,21.60
2019-02-06T10:47:17.799Z,21.27
2019-02-06T10:49:45.996Z,21.40
2019-02-06T10:52:14.078Z,19.20
2019-02-06T10:54:42.533Z,20.43
2019-02-06T10:57:11.190Z,18.67
2019-02-06T10:59:39.316Z,19.83
2019-02-06T11:02:07.375Z,18.53
2019-02-06T11:04:35.445Z,19.67
2019-02-06T11:07:03.819Z,20.47
2019-02-06T11:09:32.279Z,21.67
2019-02-06T11:12:00.359Z,19.33
2019-02-06T11:14:28.690Z,20.57
2019-02-06T11:16:56.704Z,22.37
2019-02-06T11:19:24.830Z,22.93
2019-02-06T11:21:53.059Z,20.63
2019-02-06T11:24:21.274Z,19.77
2019-02-06T11:26:49.517Z,23.43
2019-02-06T11:29:17.592Z,25.47
2019-02-06T11:31:45.669Z,23.33
2019-02-06T11:34:13.904Z,24.80
2019-02-06T11:36:42.024Z,22.13
2019-02-06T11:39:19.981Z,23.77
2019-02-06T11:41:56.834Z,24.90
2019-02-06T11:44:25.063Z,22.90
2019-02-06T11:46:53.272Z,22.70
2019-02-06T11:49:26.617Z,22.37
2019-02-06T11:51:54.811Z,27.97
2019-02-06T11:54:22.950Z,22.93
2019-02-06T11:56:51.562Z,23.87
2019-02-06T11:59:19.717Z,24.40
2019-02-06T12:01:51.195Z,24.90
2019-02-06T12:04:19.347Z,22.10
2019-02-06T12:06:48.452Z,21.93
2019-02-06T12:09:16.576Z,27.37
2019-02-06T12:11:44.675Z,29.13
2019-02-06T12:14:13.274Z,24.23
2019-02-06T12:16:41.352Z,24.93
2019-02-06T12:19:09.445Z,24.90
2019-02-06T12:21:37.480Z,27.73
2019-02-06T12:24:05.850Z,28.57
2019-02-06T12:26:33.906Z,26.77
2019-02-06T12:29:02.068Z,28.90
2019-02-06T12:31:30.535Z,30.77
2019-02-06T12:33:58.679Z,30.57
2019-02-06T12:36:26.791Z,30.00
2019-02-06T12:38:54.884Z,31.73
2019-02-06T12:41:22.927Z,23.97
2019-02-06T12:43:51.037Z,28.47
2019-02-06T12:46:19.132Z,29.43
2019-02-06T12:48:47.398Z,25.27
2019-02-06T12:51:15.587Z,27.20
2019-02-06T12:53:43.728Z,30.13
2019-02-06T12:56:11.973Z,30.13
2019-02-06T12:58:40.099Z,28.07
2019-02-06T13:01:09.711Z,27.70
2019-02-06T13:03:37.918Z,29.03
2019-02-06T13:06:06.281Z,28.47
2019-02-06T13:08:34.492Z,29.30
2019-02-06T13:11:03.530Z,26.60
2019-02-06T13:13:31.781Z,28.10
2019-02-06T13:16:00.275Z,27.77
2019-02-06T13:18:28.085Z,26.10
2019-02-06T13:20:56.227Z,30.17
2019-02-06T13:23:24.274Z,31.60
2019-02-06T13:25:52.901Z,34.03
2019-02-06T13:28:21.049Z,29.97
2019-02-06T13:30:49.212Z,29.80
2019-02-06T13:33:17.386Z,29.97
2019-02-06T13:35:45.553Z,32.50
2019-02-06T13:38:13.806Z,33.33
2019-02-06T13:40:45.708Z,36.57
2019-02-06T13:43:12.100Z,30.40
2019-02-06T13:45:43.551Z,34.30
2019-02-06T13:48:11.817Z,32.47
2019-02-06T13:50:40.198Z,35.47
2019-02-06T13:53:08.248Z,34.50
2019-02-06T13:55:36.509Z,30.67
2019-02-06T13:58:05.222Z,34.60
2019-02-06T14:00:35.580Z,34.80
2019-02-06T14:03:05.050Z,31.17
2019-02-06T14:05:33.447Z,31.37
2019-02-06T14:08:16.331Z,32.23
2019-02-06T14:10:56.644Z,31.23
2019-02-06T14:13:15.578Z,29.73
2019-02-06T14:15:46.472Z,31.80
2019-02-06T14:18:14.624Z,30.60
2019-02-06T14:20:43.739Z,32.70
2019-02-06T14:23:28.913Z,30.87
2019-02-06T14:26:22.606Z,32.40
2019-02-06T14:29:41.302Z,30.90
2019-02-06T14:33:15.662Z,34.80
2019-02-06T14:36:53.827Z,30.37
2019-02-06T14:39:48.435Z,28.63
2019-02-06T14:43:18.310Z,31.03
2019-02-06T14:46:42.518Z,28.83
2019-02-06T14:49:55.466Z,27.37
2019-02-06T14:53:00.158Z,27.30
2019-02-06T14:56:16.039Z,27.47
2019-02-06T14:59:16.999Z,31.67
2019-02-06T15:02:25.724Z,31.90
2019-02-06T15:05:42.128Z,28.70
2019-02-06T15:09:17.503Z,27.73
2019-02-06T15:12:54.663Z,27.53
2019-02-06T15:16:20.589Z,29.07
2019-02-06T15:19:58.383Z,25.77
2019-02-06T15:22:53.225Z,32.73
2019-02-06T15:26:37.594Z,32.63
2019-02-06T15:30:08.271Z,27.23
2019-02-06T15:33:12.970Z,28.93
2019-02-06T15:36:25.085Z,30.73
2019-02-06T15:40:01.931Z,34.53
2019-02-06T15:42:47.251Z,30.13
2019-02-06T15:46:24.392Z,31.17
2019-02-06T15:49:29.507Z,33.90
2019-02-06T15:53:19.874Z,27.47
2019-02-06T15:57:02.142Z,31.67
2019-02-06T16:00:22.019Z,33.80
2019-02-06T16:04:06.636Z,35.07
2019-02-06T16:07:46.751Z,40.03
2019-02-06T16:11:04.571Z,37.40
2019-02-06T16:14:42.423Z,33.37
2019-02-06T16:17:52.541Z,34.73
2019-02-06T16:21:39.986Z,32.20
2019-02-06T16:24:32.558Z,36.40
2019-02-06T16:27:53.858Z,33.53
2019-02-06T16:31:21.741Z,34.47
2019-02-06T16:34:38.911Z,40.23
2019-02-06T16:38:09.848Z,38.20
2019-02-06T16:41:15.525Z,41.07
2019-02-06T16:44:34.812Z,43.93
2019-02-06T16:47:58.251Z,42.73
2019-02-06T16:51:00.624Z,45.90
2019-02-06T16:54:23.798Z,42.87
2019-02-06T16:57:47.537Z,45.03
2019-02-06T17:01:41.308Z,44.57
2019-02-06T17:05:18.591Z,44.73
2019-02-06T17:08:49.171Z,44.53
2019-02-06T17:12:08.791Z,48.30
2019-02-06T17:15:25.676Z,45.70
2019-02-06T17:18:46.898Z,45.80
2019-02-06T17:22:32.314Z,47.30
2019-02-06T17:25:45.355Z,49.60
2019-02-06T17:28:41.982Z,53.50
2019-02-06T17:32:29.075Z,57.43
2019-02-06T17:35:36.105Z,59.90
2019-02-06T17:39:25.115Z,62.27
2019-02-06T17:42:57.708Z,57.27
2019-02-06T17:46:10.762Z,58.27
2019-02-06T17:49:24.965Z,61.60
2019-02-06T17:52:31.626Z,62.00
2019-02-06T17:55:37.435Z,61.73
2019-02-06T17:58:09.465Z,62.40
2019-02-06T18:01:22.462Z,65.37
2019-02-06T18:03:59.474Z,70.67
2019-02-06T18:06:27.625Z,66.73
2019-02-06T18:08:57.039Z,70.53
2019-02-06T18:11:25.817Z,71.07
2019-02-06T18:13:53.996Z,69.80
2019-02-06T18:16:23.106Z,68.70
2019-02-06T18:18:51.212Z,74.03
2019-02-06T18:21:19.327Z,78.63
2019-02-06T18:23:47.458Z,77.13
2019-02-06T18:26:15.931Z,74.53
2019-02-06T18:28:44.176Z,76.50
2019-02-06T18:31:12.596Z,80.53
2019-02-06T18:33:43.149Z,78.43
2019-02-06T18:36:11.409Z,68.17
2019-02-06T18:38:46.834Z,76.63
2019-02-06T18:41:11.750Z,74.10
2019-02-06T18:43:40.427Z,69.43
2019-02-06T18:46:08.670Z,72.00
2019-02-06T18:48:37.320Z,71.43
2019-02-06T18:51:05.693Z,65.70
2019-02-06T18:53:34.721Z,65.13
2019-02-06T18:56:04.071Z,65.80
2019-02-06T18:58:32.235Z,62.13
2019-02-06T19:01:00.450Z,66.80
2019-02-06T19:03:34.929Z,64.77
2019-02-06T19:06:03.407Z,71.13
2019-02-06T19:08:33.768Z,70.03
2019-02-06T19:11:04.121Z,68.00
2019-02-06T19:13:32.404Z,68.27
2019-02-06T19:16:00.825Z,70.03
2019-02-06T19:18:29.072Z,68.20
2019-02-06T19:20:57.922Z,66.63
2019-02-06T19:23:26.315Z,61.60
2019-02-06T19:25:54.857Z,62.53
2019-02-06T19:28:23.464Z,64.83
2019-02-06T19:30:51.641Z,62.83
2019-02-06T19:33:19.794Z,64.13
2019-02-06T19:35:48.129Z,62.23
2019-02-06T19:38:16.408Z,61.37
2019-02-06T19:40:44.700Z,67.00
2019-02-06T19:43:12.864Z,62.47
2019-02-06T19:45:41.694Z,62.80
2019-02-06T19:48:21.727Z,65.47
2019-02-06T19:50:40.934Z,63.33
2019-02-06T19:53:09.596Z,64.47
2019-02-06T19:55:37.862Z,69.13
2019-02-06T19:58:06.600Z,66.77
2019-02-06T20:00:35.144Z,69.23
2019-02-06T20:03:04.900Z,70.23
2019-02-06T20:05:33.221Z,66.57
2019-02-06T20:08:01.655Z,66.73
2019-02-06T20:10:36.286Z,72.67
2019-02-06T20:13:11.447Z,69.63
2019-02-06T20:15:35.297Z,69.20
2019-02-06T20:18:04.049Z,65.77
2019-02-06T20:20:33.668Z,66.57
2019-02-06T20:23:01.936Z,68.13
2019-02-06T20:25:30.608Z,68.30
2019-02-06T20:27:58.821Z,73.43
2019-02-06T20:30:28.033Z,69.50
2019-02-06T20:32:57.468Z,75.27
2019-02-06T20:35:25.985Z,77.90
2019-02-06T20:37:54.883Z,74.00
2019-02-06T20:40:29.597Z,74.23
2019-02-06T20:42:57.798Z,79.43
2019-02-06T20:45:25.920Z,78.00
2019-02-06T20:47:54.294Z,77.70
2019-02-06T20:50:28.166Z,83.20
2019-02-06T20:52:56.642Z,84.80
2019-02-06T20:55:25.121Z,77.37
2019-02-06T20:57:53.395Z,76.43
2019-02-06T21:00:30.212Z,89.43
2019-02-06T21:02:58.430Z,80.70
2019-02-06T21:05:26.727Z,82.83
2019-02-06T21:07:55.056Z,82.73
2019-02-06T21:10:25.948Z,77.60
2019-02-06T21:12:54.266Z,77.20
2019-02-06T21:15:23.048Z,72.10
2019-02-06T21:17:51.124Z,70.23
2019-02-06T21:20:20.433Z,76.93
2019-02-06T21:22:48.558Z,75.67
2019-02-06T21:25:18.419Z,72.43
2019-02-06T21:27:47.545Z,75.60
2019-02-06T21:30:19.077Z,79.67
2019-02-06T21:32:47.245Z,76.97
2019-02-06T21:35:15.536Z,84.97
2019-02-06T21:37:43.845Z,83.17
2019-02-06T21:40:16.389Z,84.17
2019-02-06T21:42:44.476Z,77.87
2019-02-06T21:45:12.618Z,77.47
2019-02-06T21:47:40.722Z,80.43
2019-02-06T21:50:11.618Z,82.53
2019-02-06T21:52:41.010Z,80.87
2019-02-06T21:55:10.599Z,85.37
2019-02-06T21:57:38.872Z,86.67
2019-02-06T22:00:13.941Z,83.60
2019-02-06T22:02:42.057Z,90.43
2019-02-06T22:05:10.571Z,94.17
2019-02-06T22:07:38.683Z,98.33
2019-02-06T22:10:08.623Z,99.87
2019-02-06T22:12:36.720Z,100.30
2019-02-06T22:15:09.963Z,98.90
2019-02-06T22:17:38.081Z,100.43
2019-02-06T22:20:07.462Z,104.63
2019-02-06T22:22:35.654Z,100.37
2019-02-06T22:25:05.023Z,118.33
2019-02-06T22:27:33.277Z,107.57
2019-02-06T22:30:01.493Z,99.47
2019-02-06T22:32:29.815Z,95.80
2019-02-06T22:34:58.108Z,95.60
2019-02-06T22:37:26.426Z,80.60
2019-02-06T22:39:54.600Z,81.87
2019-02-06T22:42:23.382Z,85.27
2019-02-06T22:44:52.026Z,76.20
2019-02-06T22:47:20.438Z,78.93
2019-02-06T22:49:48.639Z,67.60
2019-02-06T22:52:16.838Z,75.67
2019-02-06T22:54:44.973Z,71.97
2019-02-06T22:57:13.492Z,77.10
2019-02-06T22:59:41.694Z,74.70
2019-02-06T23:02:09.915Z,81.37
2019-02-06T23:04:38.116Z,83.57
2019-02-06T23:07:07.276Z,86.50
2019-02-06T23:09:35.608Z,82.03
2019-02-06T23:12:04.561Z,81.83
2019-02-06T23:14:32.729Z,88.03
2019-02-06T23:17:00.836Z,92.60
2019-02-06T23:19:29.311Z,88.97
2019-02-06T23:21:57.727Z,94.33
2019-02-06T23:24:25.891Z,90.00
2019-02-06T23:26:54.685Z,87.77
2019-02-06T23:29:23.098Z,95.27
2019-02-06T23:31:51.395Z,99.37
2019-02-06T23:34:20.536Z,92.13
2019-02-06T23:36:48.639Z,104.20
2019-02-06T23:39:17.953Z,94.17
2019-02-06T23:41:46.376Z,92.60
2019-02-06T23:44:14.804Z,93.80
2019-02-06T23:46:43.059Z,100.77
2019-02-06T23:49:11.111Z,100.57
2019-02-06T23:51:39.317Z,96.27
2019-02-06T23:54:07.411Z,98.73
2019-02-06T23:56:35.699Z,98.47
2019-02-06T23:59:04.201Z,105.87
